sensor_id;sensor_type;location;lat;lon;timestamp;P1;durP1;ratioP1;P2;durP2;ratioP2
12623;SDS011;6377;42.836;23.998;2023-08-06T15:37:48;6.53;;;4.50;;
12623;SDS011;6377;42.836;23.998;2023-08-06T15:40:16;7.65;;;4.90;;
12623;SDS011;6377;42.836;23.998;2023-08-06T15:42:43;6.65;;;4.30;;
12623;SDS011;6377;42.836;23.998;2023-08-06T15:45:10;4.80;;;3.58;;
12623;SDS011;6377;42.836;23.998;2023-08-06T15:47:37;5.07;;;3.50;;
12623;SDS011;6377;42.836;23.998;2023-08-06T15:50:06;6.18;;;3.80;;
12623;SDS011;6377;42.836;23.998;2023-08-06T15:52:34;4.00;;;3.42;;
12623;SDS011;6377;42.836;23.998;2023-08-06T15:55:03;4.28;;;3.17;;
12623;SDS011;6377;42.836;23.998;2023-08-06T15:57:31;3.33;;;3.00;;
12623;SDS011;6377;42.836;23.998;2023-08-06T15:59:58;3.50;;;3.20;;
12623;SDS011;6377;42.836;23.998;2023-08-06T16:02:26;5.53;;;2.85;;
12623;SDS011;6377;42.836;23.998;2023-08-06T16:04:53;3.80;;;3.38;;
12623;SDS011;6377;42.836;23.998;2023-08-06T16:07:21;5.78;;;4.38;;
12623;SDS011;6377;42.836;23.998;2023-08-06T16:09:49;7.53;;;5.70;;
12623;SDS011;6377;42.836;23.998;2023-08-06T16:12:18;3.67;;;3.00;;
12623;SDS011;6377;42.836;23.998;2023-08-06T16:14:45;4.18;;;3.78;;
12623;SDS011;6377;42.836;23.998;2023-08-06T16:17:12;7.75;;;4.47;;
12623;SDS011;6377;42.836;23.998;2023-08-06T16:19:40;5.30;;;4.65;;
12623;SDS011;6377;42.836;23.998;2023-08-06T16:22:07;6.25;;;4.72;;
12623;SDS011;6377;42.836;23.998;2023-08-06T16:24:35;4.45;;;4.05;;
12623;SDS011;6377;42.836;23.998;2023-08-06T16:27:02;5.13;;;3.95;;
12623;SDS011;6377;42.836;23.998;2023-08-06T16:29:31;4.07;;;3.30;;
12623;SDS011;6377;42.836;23.998;2023-08-06T16:31:59;3.78;;;3.47;;
12623;SDS011;6377;42.836;23.998;2023-08-06T16:34:26;3.70;;;3.33;;
12623;SDS011;6377;42.836;23.998;2023-08-06T16:36:53;4.80;;;3.75;;
12623;SDS011;6377;42.836;23.998;2023-08-06T16:39:20;3.25;;;2.95;;
12623;SDS011;6377;42.836;23.998;2023-08-06T16:41:49;5.05;;;2.75;;
12623;SDS011;6377;42.836;23.998;2023-08-06T16:44:16;3.08;;;2.80;;
12623;SDS011;6377;42.836;23.998;2023-08-06T16:46:45;3.75;;;3.00;;
12623;SDS011;6377;42.836;23.998;2023-08-06T16:49:12;3.58;;;2.83;;
12623;SDS011;6377;42.836;23.998;2023-08-06T16:51:39;18.80;;;14.95;;
12623;SDS011;6377;42.836;23.998;2023-08-06T16:54:06;6.85;;;4.85;;
12623;SDS011;6377;42.836;23.998;2023-08-06T16:56:33;16.25;;;11.80;;
12623;SDS011;6377;42.836;23.998;2023-08-06T16:59:00;11.00;;;8.40;;
12623;SDS011;6377;42.836;23.998;2023-08-06T17:01:27;9.13;;;7.72;;
12623;SDS011;6377;42.836;23.998;2023-08-06T17:03:57;8.60;;;6.72;;
12623;SDS011;6377;42.836;23.998;2023-08-06T17:06:24;8.43;;;6.50;;
12623;SDS011;6377;42.836;23.998;2023-08-06T17:08:51;4.38;;;3.95;;
12623;SDS011;6377;42.836;23.998;2023-08-06T17:11:18;5.53;;;4.38;;
12623;SDS011;6377;42.836;23.998;2023-08-06T17:13:45;4.95;;;3.58;;
12623;SDS011;6377;42.836;23.998;2023-08-06T17:16:12;7.40;;;5.80;;
12623;SDS011;6377;42.836;23.998;2023-08-06T17:18:42;4.47;;;4.07;;
12623;SDS011;6377;42.836;23.998;2023-08-06T17:21:10;5.47;;;4.05;;
12623;SDS011;6377;42.836;23.998;2023-08-06T17:23:37;4.25;;;3.78;;
12623;SDS011;6377;42.836;23.998;2023-08-06T17:26:04;3.80;;;3.40;;
12623;SDS011;6377;42.836;23.998;2023-08-06T17:28:31;7.00;;;6.38;;
12623;SDS011;6377;42.836;23.998;2023-08-06T17:30:58;4.70;;;4.20;;
12623;SDS011;6377;42.836;23.998;2023-08-06T17:33:26;5.10;;;3.80;;
12623;SDS011;6377;42.836;23.998;2023-08-06T17:35:53;5.35;;;4.28;;
12623;SDS011;6377;42.836;23.998;2023-08-06T17:38:21;3.70;;;3.33;;
12623;SDS011;6377;42.836;23.998;2023-08-06T17:40:52;7.32;;;3.88;;
12623;SDS011;6377;42.836;23.998;2023-08-06T17:43:20;5.00;;;3.30;;
12623;SDS011;6377;42.836;23.998;2023-08-06T17:45:47;3.83;;;3.40;;
12623;SDS011;6377;42.836;23.998;2023-08-06T17:48:14;4.57;;;3.28;;
12623;SDS011;6377;42.836;23.998;2023-08-06T17:50:43;5.22;;;3.50;;
12623;SDS011;6377;42.836;23.998;2023-08-06T17:53:11;4.38;;;3.17;;
12623;SDS011;6377;42.836;23.998;2023-08-06T17:55:40;5.43;;;3.42;;
12623;SDS011;6377;42.836;23.998;2023-08-06T17:58:08;5.18;;;3.63;;
12623;SDS011;6377;42.836;23.998;2023-08-06T18:00:35;4.82;;;3.05;;
12623;SDS011;6377;42.836;23.998;2023-08-06T18:03:02;4.53;;;3.38;;
12623;SDS011;6377;42.836;23.998;2023-08-06T18:05:29;3.50;;;3.20;;
12623;SDS011;6377;42.836;23.998;2023-08-06T18:07:58;4.32;;;3.20;;
12623;SDS011;6377;42.836;23.998;2023-08-06T18:10:25;3.55;;;3.25;;
12623;SDS011;6377;42.836;23.998;2023-08-06T18:12:54;5.15;;;3.78;;
12623;SDS011;6377;42.836;23.998;2023-08-06T18:15:21;4.40;;;3.35;;
12623;SDS011;6377;42.836;23.998;2023-08-06T18:17:48;7.88;;;3.50;;
12623;SDS011;6377;42.836;23.998;2023-08-06T18:20:15;5.40;;;3.45;;
12623;SDS011;6377;42.836;23.998;2023-08-06T18:22:42;4.00;;;3.60;;
12623;SDS011;6377;42.836;23.998;2023-08-06T18:25:09;4.32;;;3.40;;
12623;SDS011;6377;42.836;23.998;2023-08-06T18:27:37;6.22;;;4.28;;
12623;SDS011;6377;42.836;23.998;2023-08-06T18:30:10;4.55;;;3.42;;
12623;SDS011;6377;42.836;23.998;2023-08-06T18:32:37;4.82;;;3.83;;
12623;SDS011;6377;42.836;23.998;2023-08-06T18:35:05;4.50;;;3.63;;
12623;SDS011;6377;42.836;23.998;2023-08-06T18:37:35;5.78;;;3.60;;
12623;SDS011;6377;42.836;23.998;2023-08-06T18:40:36;6.15;;;3.55;;
12623;SDS011;6377;42.836;23.998;2023-08-06T18:43:03;4.80;;;3.45;;
12623;SDS011;6377;42.836;23.998;2023-08-06T18:45:32;6.53;;;3.80;;
12623;SDS011;6377;42.836;23.998;2023-08-06T18:48:06;10.10;;;4.32;;
12623;SDS011;6377;42.836;23.998;2023-08-06T18:50:36;8.27;;;3.92;;
12623;SDS011;6377;42.836;23.998;2023-08-06T18:53:06;8.10;;;4.30;;
12623;SDS011;6377;42.836;23.998;2023-08-06T18:55:33;8.52;;;4.25;;
12623;SDS011;6377;42.836;23.998;2023-08-06T18:58:01;6.00;;;4.10;;
12623;SDS011;6377;42.836;23.998;2023-08-06T19:00:29;6.68;;;3.80;;
12623;SDS011;6377;42.836;23.998;2023-08-06T19:02:58;5.20;;;4.13;;
12623;SDS011;6377;42.836;23.998;2023-08-06T19:05:25;4.75;;;3.83;;
12623;SDS011;6377;42.836;23.998;2023-08-06T19:07:52;5.53;;;3.97;;
12623;SDS011;6377;42.836;23.998;2023-08-06T19:10:19;7.90;;;4.28;;
12623;SDS011;6377;42.836;23.998;2023-08-06T19:12:49;4.45;;;3.72;;
12623;SDS011;6377;42.836;23.998;2023-08-06T19:15:16;4.40;;;3.83;;
12623;SDS011;6377;42.836;23.998;2023-08-06T19:17:43;5.43;;;3.45;;
12623;SDS011;6377;42.836;23.998;2023-08-06T19:20:12;4.45;;;3.45;;
12623;SDS011;6377;42.836;23.998;2023-08-06T19:22:39;7.13;;;3.75;;
12623;SDS011;6377;42.836;23.998;2023-08-06T19:25:07;6.13;;;3.45;;
12623;SDS011;6377;42.836;23.998;2023-08-06T19:27:34;4.72;;;3.47;;
12623;SDS011;6377;42.836;23.998;2023-08-06T19:30:02;5.05;;;3.10;;
12623;SDS011;6377;42.836;23.998;2023-08-06T19:32:29;5.47;;;3.55;;
12623;SDS011;6377;42.836;23.998;2023-08-06T19:34:57;5.10;;;3.40;;
12623;SDS011;6377;42.836;23.998;2023-08-06T19:37:25;4.38;;;3.33;;
12623;SDS011;6377;42.836;23.998;2023-08-06T19:39:52;7.40;;;4.00;;
12623;SDS011;6377;42.836;23.998;2023-08-06T19:42:20;7.13;;;3.78;;
12623;SDS011;6377;42.836;23.998;2023-08-06T19:44:47;6.90;;;4.13;;
12623;SDS011;6377;42.836;23.998;2023-08-06T19:47:14;5.13;;;3.42;;
12623;SDS011;6377;42.836;23.998;2023-08-06T19:49:41;6.50;;;3.35;;
12623;SDS011;6377;42.836;23.998;2023-08-06T19:52:11;8.18;;;3.67;;
12623;SDS011;6377;42.836;23.998;2023-08-06T19:54:40;4.45;;;3.50;;
12623;SDS011;6377;42.836;23.998;2023-08-06T19:57:07;3.72;;;3.25;;
12623;SDS011;6377;42.836;23.998;2023-08-06T19:59:34;4.28;;;3.30;;
12623;SDS011;6377;42.836;23.998;2023-08-06T20:02:01;5.63;;;3.45;;
12623;SDS011;6377;42.836;23.998;2023-08-06T20:04:28;5.32;;;3.78;;
12623;SDS011;6377;42.836;23.998;2023-08-06T20:06:56;8.77;;;3.85;;
12623;SDS011;6377;42.836;23.998;2023-08-06T20:09:23;4.78;;;3.50;;
12623;SDS011;6377;42.836;23.998;2023-08-06T20:11:52;4.72;;;3.55;;
12623;SDS011;6377;42.836;23.998;2023-08-06T20:14:19;3.58;;;3.28;;
12623;SDS011;6377;42.836;23.998;2023-08-06T20:16:46;5.80;;;3.53;;
12623;SDS011;6377;42.836;23.998;2023-08-06T20:19:14;6.13;;;3.78;;
12623;SDS011;6377;42.836;23.998;2023-08-06T20:21:41;4.40;;;3.53;;
12623;SDS011;6377;42.836;23.998;2023-08-06T20:24:09;6.53;;;3.38;;
12623;SDS011;6377;42.836;23.998;2023-08-06T20:26:36;5.03;;;3.58;;
12623;SDS011;6377;42.836;23.998;2023-08-06T20:29:05;4.85;;;3.55;;
12623;SDS011;6377;42.836;23.998;2023-08-06T20:31:32;5.60;;;3.55;;
12623;SDS011;6377;42.836;23.998;2023-08-06T20:33:59;6.28;;;3.97;;
12623;SDS011;6377;42.836;23.998;2023-08-06T20:36:27;5.00;;;3.58;;
12623;SDS011;6377;42.836;23.998;2023-08-06T20:38:54;4.00;;;3.60;;
12623;SDS011;6377;42.836;23.998;2023-08-06T20:41:21;3.63;;;3.17;;
12623;SDS011;6377;42.836;23.998;2023-08-06T20:43:48;4.40;;;3.35;;
12623;SDS011;6377;42.836;23.998;2023-08-06T20:46:17;4.00;;;3.60;;
12623;SDS011;6377;42.836;23.998;2023-08-06T20:48:44;4.28;;;3.88;;
12623;SDS011;6377;42.836;23.998;2023-08-06T20:51:11;4.47;;;3.75;;
12623;SDS011;6377;42.836;23.998;2023-08-06T20:53:39;3.80;;;3.50;;
12623;SDS011;6377;42.836;23.998;2023-08-06T20:56:06;4.18;;;3.78;;
12623;SDS011;6377;42.836;23.998;2023-08-06T20:58:33;4.45;;;3.58;;
12623;SDS011;6377;42.836;23.998;2023-08-06T21:01:00;3.95;;;3.55;;
12623;SDS011;6377;42.836;23.998;2023-08-06T21:03:29;6.97;;;3.95;;
12623;SDS011;6377;42.836;23.998;2023-08-06T21:05:57;4.40;;;3.60;;
12623;SDS011;6377;42.836;23.998;2023-08-06T21:08:25;4.25;;;3.80;;
12623;SDS011;6377;42.836;23.998;2023-08-06T21:10:52;4.38;;;3.70;;
12623;SDS011;6377;42.836;23.998;2023-08-06T21:13:19;4.15;;;3.75;;
12623;SDS011;6377;42.836;23.998;2023-08-06T21:15:53;4.00;;;3.70;;
12623;SDS011;6377;42.836;23.998;2023-08-06T21:18:21;4.90;;;3.80;;
12623;SDS011;6377;42.836;23.998;2023-08-06T21:20:52;4.32;;;3.92;;
12623;SDS011;6377;42.836;23.998;2023-08-06T21:23:20;4.15;;;3.45;;
12623;SDS011;6377;42.836;23.998;2023-08-06T21:25:49;3.85;;;3.45;;
12623;SDS011;6377;42.836;23.998;2023-08-06T21:28:20;4.10;;;3.70;;
12623;SDS011;6377;42.836;23.998;2023-08-06T21:30:52;3.65;;;3.35;;
12623;SDS011;6377;42.836;23.998;2023-08-06T21:33:21;4.05;;;3.65;;
12623;SDS011;6377;42.836;23.998;2023-08-06T21:35:48;4.32;;;3.92;;
12623;SDS011;6377;42.836;23.998;2023-08-06T21:38:16;7.63;;;3.83;;
12623;SDS011;6377;42.836;23.998;2023-08-06T21:40:44;4.75;;;3.75;;
12623;SDS011;6377;42.836;23.998;2023-08-06T21:43:11;3.78;;;3.47;;
12623;SDS011;6377;42.836;23.998;2023-08-06T21:45:39;3.97;;;3.22;;
12623;SDS011;6377;42.836;23.998;2023-08-06T21:48:06;4.00;;;3.70;;
12623;SDS011;6377;42.836;23.998;2023-08-06T21:50:33;5.97;;;3.70;;
12623;SDS011;6377;42.836;23.998;2023-08-06T21:53:01;4.70;;;3.78;;
12623;SDS011;6377;42.836;23.998;2023-08-06T21:55:32;5.22;;;3.53;;
12623;SDS011;6377;42.836;23.998;2023-08-06T21:58:00;4.97;;;4.00;;
12623;SDS011;6377;42.836;23.998;2023-08-06T22:00:27;5.00;;;3.67;;
12623;SDS011;6377;42.836;23.998;2023-08-06T22:02:54;7.32;;;4.10;;
12623;SDS011;6377;42.836;23.998;2023-08-06T22:05:21;4.13;;;3.67;;
12623;SDS011;6377;42.836;23.998;2023-08-06T22:07:49;3.40;;;3.10;;
12623;SDS011;6377;42.836;23.998;2023-08-06T22:10:16;3.70;;;3.30;;
12623;SDS011;6377;42.836;23.998;2023-08-06T22:12:45;3.83;;;3.20;;
12623;SDS011;6377;42.836;23.998;2023-08-06T22:15:12;2.40;;;2.20;;
12623;SDS011;6377;42.836;23.998;2023-08-06T22:17:39;2.72;;;2.40;;
12623;SDS011;6377;42.836;23.998;2023-08-06T22:20:07;2.75;;;1.98;;
12623;SDS011;6377;42.836;23.998;2023-08-06T22:22:35;2.85;;;2.53;;
12623;SDS011;6377;42.836;23.998;2023-08-06T22:25:04;2.95;;;2.65;;
12623;SDS011;6377;42.836;23.998;2023-08-06T22:27:32;2.50;;;2.30;;
12623;SDS011;6377;42.836;23.998;2023-08-06T22:30:02;4.70;;;2.72;;
12623;SDS011;6377;42.836;23.998;2023-08-06T22:32:29;2.95;;;2.65;;
12623;SDS011;6377;42.836;23.998;2023-08-06T22:34:56;2.85;;;2.65;;
12623;SDS011;6377;42.836;23.998;2023-08-06T22:37:24;4.43;;;1.80;;
12623;SDS011;6377;42.836;23.998;2023-08-06T22:39:51;1.98;;;1.80;;
12623;SDS011;6377;42.836;23.998;2023-08-06T22:42:24;3.63;;;2.00;;
12623;SDS011;6377;42.836;23.998;2023-08-06T22:44:52;3.55;;;1.85;;
12623;SDS011;6377;42.836;23.998;2023-08-06T22:47:21;2.72;;;1.52;;
12623;SDS011;6377;42.836;23.998;2023-08-06T22:49:48;2.15;;;1.95;;
12623;SDS011;6377;42.836;23.998;2023-08-06T22:52:16;1.50;;;1.40;;
12623;SDS011;6377;42.836;23.998;2023-08-06T22:54:43;1.73;;;1.25;;
12623;SDS011;6377;42.836;23.998;2023-08-06T22:57:10;2.15;;;1.20;;
12623;SDS011;6377;42.836;23.998;2023-08-06T22:59:37;1.60;;;1.50;;
12623;SDS011;6377;42.836;23.998;2023-08-06T23:02:05;1.45;;;1.20;;
12623;SDS011;6377;42.836;23.998;2023-08-06T23:04:34;1.95;;;1.45;;
12623;SDS011;6377;42.836;23.998;2023-08-06T23:07:01;1.40;;;1.30;;
12623;SDS011;6377;42.836;23.998;2023-08-06T23:09:28;2.03;;;1.25;;
12623;SDS011;6377;42.836;23.998;2023-08-06T23:11:56;3.00;;;1.30;;
12623;SDS011;6377;42.836;23.998;2023-08-06T23:14:23;1.40;;;1.20;;
12623;SDS011;6377;42.836;23.998;2023-08-06T23:16:51;1.40;;;1.30;;
12623;SDS011;6377;42.836;23.998;2023-08-06T23:19:19;1.58;;;1.20;;
12623;SDS011;6377;42.836;23.998;2023-08-06T23:21:48;1.13;;;1.08;;
12623;SDS011;6377;42.836;23.998;2023-08-06T23:24:15;1.25;;;1.15;;
12623;SDS011;6377;42.836;23.998;2023-08-06T23:26:42;0.90;;;0.90;;
12623;SDS011;6377;42.836;23.998;2023-08-06T23:29:10;1.30;;;1.20;;
12623;SDS011;6377;42.836;23.998;2023-08-06T23:31:37;1.40;;;1.30;;
12623;SDS011;6377;42.836;23.998;2023-08-06T23:34:04;1.48;;;1.38;;
12623;SDS011;6377;42.836;23.998;2023-08-06T23:36:34;0.90;;;0.90;;
12623;SDS011;6377;42.836;23.998;2023-08-06T23:39:02;1.30;;;1.20;;
12623;SDS011;6377;42.836;23.998;2023-08-06T23:41:31;1.75;;;1.50;;
12623;SDS011;6377;42.836;23.998;2023-08-06T23:43:59;1.30;;;1.20;;
12623;SDS011;6377;42.836;23.998;2023-08-06T23:46:26;2.10;;;1.10;;
12623;SDS011;6377;42.836;23.998;2023-08-06T23:48:53;1.40;;;1.30;;
12623;SDS011;6377;42.836;23.998;2023-08-06T23:51:21;1.00;;;0.90;;
12623;SDS011;6377;42.836;23.998;2023-08-06T23:53:48;1.15;;;1.05;;
12623;SDS011;6377;42.836;23.998;2023-08-06T23:56:17;0.95;;;0.85;;
12623;SDS011;6377;42.836;23.998;2023-08-06T23:58:45;1.23;;;1.13;;
